Observation data for Graham on 01/10/2018      Previous  Date  Next       Current Mesonet Observations  Soil Data  Daily Summary Page  Observations in Plain Language
KGHS 100600Z 20004KT 13/00 A2988 RMK A01 T01260004  RH  044%=      5-min Rain = 0
KGHS 100605Z 20004G10KT 12/00 A2988 RMK A01 T01230004  RH  044%=      5-min Rain = 0
KGHS 100610Z 22005G10KT 12/01 A2988 RMK A01 T01210005  RH  045%=      5-min Rain = 0
KGHS 100615Z 22005KT 12/01 A2987 RMK A01 T01190005  RH  046%=      5-min Rain = 0
KGHS 100620Z 22004KT 12/01 A2987 RMK A01 T01180005  RH  046%=      5-min Rain = 0
KGHS 100625Z 21005KT 12/01 A2987 RMK A01 T01160006  RH  047%=      5-min Rain = 0
KGHS 100630Z 20006KT 12/01 A2987 RMK A01 T01160007  RH  047%=      5-min Rain = 0
KGHS 100635Z 20005KT 12/01 A2987 RMK A01 T01160007  RH  048%=      5-min Rain = 0
KGHS 100640Z 20004G10KT 12/01 A2986 RMK A01 T01160008  RH  048%=      5-min Rain = 0
KGHS 100645Z 19004KT 12/01 A2986 RMK A01 T01150008  RH  048%=      5-min Rain = 0
KGHS 100650Z 19003G8KT 12/01 A2986 RMK A01 T01150009  RH  049%=      5-min Rain = 0
KGHS 100655Z 19004G10KT 12/01 A2986 RMK A01 T01150010  RH  049%=      5-min Rain = 0
KGHS 100700Z 19004KT 11/01 A2986 RMK A01 T01140010  RH  049%=      5-min Rain = 0
KGHS 100705Z 17004KT 11/01 A2986 RMK A01 T01140010  RH  049%=      5-min Rain = 0
KGHS 100710Z 17006KT 11/01 A2985 RMK A01 T01140011  RH  050%=      5-min Rain = 0
KGHS 100715Z 18006G12KT 11/01 A2985 RMK A01 T01140012  RH  050%=      5-min Rain = 0
KGHS 100720Z 19006G12KT 11/01 A2985 RMK A01 T01130012  RH  050%=      5-min Rain = 0
KGHS 100725Z 19007KT 11/01 A2985 RMK A01 T01130012  RH  051%=      5-min Rain = 0
KGHS 100730Z 19007KT 11/01 A2985 RMK A01 T01120012  RH  051%=      5-min Rain = 0
KGHS 100735Z 18007G12KT 11/01 A2984 RMK A01 T01110013  RH  051%=      5-min Rain = 0
KGHS 100740Z 18005KT 11/01 A2984 RMK A01 T01100013  RH  052%=      5-min Rain = 0
KGHS 100745Z 19004KT 11/01 A2984 RMK A01 T01100013  RH  052%=      5-min Rain = 0
KGHS 100750Z 18004KT 11/01 A2984 RMK A01 T01090013  RH  052%=      5-min Rain = 0
KGHS 100755Z 19005KT 11/01 A2984 RMK A01 T01090013  RH  052%=      5-min Rain = 0
KGHS 100800Z 20006KT 11/01 A2984 RMK A01 T01070013  RH  053%=      5-min Rain = 0
KGHS 100805Z 19005KT 11/01 A2984 RMK A01 T01070013  RH  053%=      5-min Rain = 0
KGHS 100810Z 20004KT 11/01 A2984 RMK A01 T01050013  RH  054%=      5-min Rain = 0
KGHS 100815Z 22005KT 10/01 A2984 RMK A01 T01040014  RH  054%=      5-min Rain = 0
KGHS 100820Z 22005KT 10/01 A2984 RMK A01 T01030014  RH  054%=      5-min Rain = 0
KGHS 100825Z 20006KT 10/01 A2984 RMK A01 T01020013  RH  055%=      5-min Rain = 0
KGHS 100830Z 21006KT 10/01 A2984 RMK A01 T01000013  RH  056%=      5-min Rain = 0
KGHS 100835Z 21005KT 10/01 A2984 RMK A01 T00980013  RH  056%=      5-min Rain = 0
KGHS 100840Z 20004KT 10/01 A2983 RMK A01 T00970013  RH  057%=      5-min Rain = 0
KGHS 100845Z 22002KT 10/01 A2983 RMK A01 T00960013  RH  057%=      5-min Rain = 0
KGHS 100850Z 22004KT 10/01 A2983 RMK A01 T00950013  RH  057%=      5-min Rain = 0
KGHS 100855Z 21005KT 10/01 A2983 RMK A01 T00950013  RH  057%=      5-min Rain = 0
KGHS 100900Z 22004KT 10/01 A2983 RMK A01 T00950013  RH  057%=      5-min Rain = 0
KGHS 100905Z 21005KT 10/01 A2983 RMK A01 T00950013  RH  057%=      5-min Rain = 0
KGHS 100910Z 21006KT 09/01 A2983 RMK A01 T00940013  RH  057%=      5-min Rain = 0
KGHS 100915Z 21005KT 09/01 A2983 RMK A01 T00940013  RH  058%=      5-min Rain = 0
KGHS 100920Z 22005G10KT 09/01 A2983 RMK A01 T00940014  RH  058%=      5-min Rain = 0
KGHS 100925Z 21008KT 10/01 A2982 RMK A01 T00950014  RH  058%=      5-min Rain = 0
KGHS 100930Z 21006KT 09/01 A2982 RMK A01 T00940014  RH  058%=      5-min Rain = 0
KGHS 100935Z 21005KT 09/01 A2982 RMK A01 T00930014  RH  058%=      5-min Rain = 0
KGHS 100940Z 21005KT 09/01 A2982 RMK A01 T00930014  RH  058%=      5-min Rain = 0
KGHS 100945Z 19004KT 09/01 A2982 RMK A01 T00910013  RH  059%=      5-min Rain = 0
KGHS 100950Z 18004KT 09/01 A2981 RMK A01 T00900013  RH  059%=      5-min Rain = 0
KGHS 100955Z 18004KT 09/01 A2981 RMK A01 T00890013  RH  060%=      5-min Rain = 0
KGHS 101000Z 16005KT 09/01 A2981 RMK A01 T00870012  RH  060%=      5-min Rain = 0
KGHS 101005Z 17005KT 09/01 A2981 RMK A01 T00860012  RH  061%=      5-min Rain = 0
KGHS 101010Z 17006KT 09/01 A298 RMK A01 T00860012  RH  060%=      5-min Rain = 0
KGHS 101015Z 18007KT 09/01 A2981 RMK A01 T00850012  RH  061%=      5-min Rain = 0
KGHS 101020Z 18007KT 08/01 A2981 RMK A01 T00840012  RH  061%=      5-min Rain = 0
KGHS 101025Z 18007KT 09/01 A2981 RMK A01 T00860013  RH  061%=      5-min Rain = 0
KGHS 101030Z 18006KT 09/01 A2981 RMK A01 T00880013  RH  060%=      5-min Rain = 0
KGHS 101035Z 18006KT 09/01 A2981 RMK A01 T00900013  RH  059%=      5-min Rain = 0
KGHS 101040Z 18006KT 09/01 A2981 RMK A01 T00900013  RH  059%=      5-min Rain = 0
KGHS 101045Z 19006KT 09/01 A298 RMK A01 T00890013  RH  059%=      5-min Rain = 0
KGHS 101050Z 17005KT 09/01 A298 RMK A01 T00880013  RH  060%=      5-min Rain = 0
KGHS 101055Z 17006KT 09/01 A298 RMK A01 T00870013  RH  060%=      5-min Rain = 0
KGHS 101100Z 18007KT 09/01 A298 RMK A01 T00860013  RH  061%=      5-min Rain = 0
KGHS 101105Z 18006KT 09/01 A298 RMK A01 T00860012  RH  061%=      5-min Rain = 0
KGHS 101110Z 18006G11KT 09/01 A2979 RMK A01 T00850013  RH  061%=      5-min Rain = 0
KGHS 101115Z 17006KT 09/01 A2979 RMK A01 T00860013  RH  061%=      5-min Rain = 0
KGHS 101120Z 17006KT 09/01 A2978 RMK A01 T00870013  RH  061%=      5-min Rain = 0
KGHS 101125Z 17007KT 09/01 A2978 RMK A01 T00870014  RH  061%=      5-min Rain = 0
KGHS 101130Z 18008KT 09/02 A2979 RMK A01 T00900015  RH  060%=      5-min Rain = 0
KGHS 101135Z 18008KT 09/02 A2979 RMK A01 T00900015  RH  060%=      5-min Rain = 0
KGHS 101140Z 18007KT 09/01 A2979 RMK A01 T00890014  RH  060%=      5-min Rain = 0
KGHS 101145Z 17008KT 09/01 A2978 RMK A01 T00880014  RH  060%=      5-min Rain = 0
KGHS 101150Z 17009KT 09/01 A2978 RMK A01 T00890014  RH  060%=      5-min Rain = 0
KGHS 101155Z 19007KT 09/02 A2978 RMK A01 T00890015  RH  060%=      5-min Rain = 0
KGHS 101200Z 19008KT 09/02 A2978 RMK A01 T00900015  RH  060%=      5-min Rain = 0
KGHS 101205Z 18007KT 09/02 A2978 RMK A01 T00910015  RH  060%=      5-min Rain = 0
KGHS 101210Z 20007KT 09/02 A2978 RMK A01 T00900015  RH  060%=      5-min Rain = 0
KGHS 101215Z 19006KT 09/02 A2978 RMK A01 T00900015  RH  060%=      5-min Rain = 0
KGHS 101220Z 19007KT 09/02 A2978 RMK A01 T00900016  RH  060%=      5-min Rain = 0
KGHS 101225Z 20007KT 09/02 A2978 RMK A01 T00910016  RH  060%=      5-min Rain = 0
KGHS 101230Z 20007KT 09/02 A2978 RMK A01 T00910016  RH  060%=      5-min Rain = 0
KGHS 101235Z 20007KT 09/02 A2978 RMK A01 T00910016  RH  060%=      5-min Rain = 0
KGHS 101240Z 18007KT 09/02 A2978 RMK A01 T00910016  RH  060%=      5-min Rain = 0
KGHS 101245Z 18008KT 09/02 A2978 RMK A01 T00920017  RH  060%=      5-min Rain = 0
KGHS 101250Z 17007KT 09/02 A2978 RMK A01 T00940017  RH  059%=      5-min Rain = 0
KGHS 101255Z 19007KT 09/02 A2978 RMK A01 T00940017  RH  059%=      5-min Rain = 0
KGHS 101300Z 19008KT 10/02 A2978 RMK A01 T00950017  RH  059%=      5-min Rain = 0
KGHS 101305Z 19007KT 10/02 A2978 RMK A01 T00960017  RH  059%=      5-min Rain = 0
KGHS 101310Z 18007KT 10/02 A2978 RMK A01 T00950017  RH  059%=      5-min Rain = 0
KGHS 101315Z 19007KT 09/02 A2978 RMK A01 T00930017  RH  060%=      5-min Rain = 0
KGHS 101320Z 20006KT 09/02 A2978 RMK A01 T00920017  RH  060%=      5-min Rain = 0
KGHS 101325Z 17006KT 09/02 A2977 RMK A01 T00920017  RH  060%=      5-min Rain = 0
KGHS 101330Z 18005KT 09/02 A2977 RMK A01 T00910017  RH  061%=      5-min Rain = 0
KGHS 101335Z 19005KT 09/02 A2977 RMK A01 T00910017  RH  061%=      5-min Rain = 0
KGHS 101340Z 18008KT 09/02 A2977 RMK A01 T00920017  RH  060%=      5-min Rain = 0
KGHS 101345Z 19010KT 09/02 A2977 RMK A01 T00940018  RH  060%=      5-min Rain = 0
KGHS 101350Z 20009KT 10/02 A2977 RMK A01 T00950018  RH  059%=      5-min Rain = 0
KGHS 101355Z 18008G13KT 10/02 A2977 RMK A01 T00950018  RH  059%=      5-min Rain = 0
KGHS 101400Z 17008KT 09/02 A2977 RMK A01 T00940017  RH  060%=      5-min Rain = 0
KGHS 101405Z 18010KT 09/02 A2976 RMK A01 T00940017  RH  059%=      5-min Rain = 0
KGHS 101410Z 18009KT 10/02 A2977 RMK A01 T00950017  RH  059%=      5-min Rain = 0
KGHS 101415Z 19008KT 10/02 A2977 RMK A01 T00950017  RH  059%=      5-min Rain = 0
KGHS 101420Z 18007KT 10/02 A2976 RMK A01 T00950017  RH  059%=      5-min Rain = 0
KGHS 101425Z 16007KT 09/02 A2976 RMK A01 T00940017  RH  059%=      5-min Rain = 0
KGHS 101430Z 16009KT 09/02 A2975 RMK A01 T00940018  RH  060%=      5-min Rain = 0
KGHS 101435Z 17009KT 10/02 A2975 RMK A01 T00950018  RH  059%=      5-min Rain = 0
KGHS 101440Z 18010KT 10/02 A2975 RMK A01 T00960018  RH  059%=      5-min Rain = 0
KGHS 101445Z 18010KT 10/02 A2975 RMK A01 T00970018  RH  059%=      5-min Rain = 0
KGHS 101450Z 18009KT 10/02 A2976 RMK A01 T00980018  RH  058%=      5-min Rain = 0
KGHS 101455Z 18007KT 10/02 A2976 RMK A01 T00990019  RH  058%=      5-min Rain = 0
KGHS 101500Z 18005KT 10/02 A2977 RMK A01 T01020020  RH  057%=      5-min Rain = 0
KGHS 101505Z 17004KT 11/02 A2977 RMK A01 T01070022  RH  056%=      5-min Rain = 0
KGHS 101510Z 19006KT 11/02 A2977 RMK A01 T01110022  RH  055%=      5-min Rain = 0
KGHS 101515Z 19006KT 11/02 A2976 RMK A01 T01130022  RH  054%=      5-min Rain = 0
KGHS 101520Z 19007G13KT 12/02 A2976 RMK A01 T01150022  RH  053%=      5-min Rain = 0
KGHS 101525Z 19010G15KT 12/02 A2976 RMK A01 T01160021  RH  053%=      5-min Rain = 0
KGHS 101530Z 20009G14KT 12/02 A2976 RMK A01 T01160021  RH  053%=      5-min Rain = 0
KGHS 101535Z 20008G13KT 12/02 A2976 RMK A01 T01150020  RH  053%=      5-min Rain = 0
KGHS 101540Z 20010G15KT 11/02 A2976 RMK A01 T01140020  RH  053%=      5-min Rain = 0
KGHS 101545Z 21007KT 11/02 A2977 RMK A01 T01120020  RH  054%=      5-min Rain = 0
KGHS 101550Z 20008KT 11/02 A2976 RMK A01 T01110020  RH  054%=      5-min Rain = 0
KGHS 101555Z 20010KT 11/02 A2976 RMK A01 T01130020  RH  054%=      5-min Rain = 0
KGHS 101600Z 20010KT 11/02 A2976 RMK A01 T01130020  RH  053%=      5-min Rain = 0
KGHS 101605Z 20010KT 11/02 A2976 RMK A01 T01120020  RH  054%=      5-min Rain = 0
KGHS 101610Z 20008G13KT 11/02 A2976 RMK A01 T01130021  RH  054%=      5-min Rain = 0
KGHS 101615Z 20009KT 12/02 A2976 RMK A01 T01170020  RH  052%=      5-min Rain = 0
KGHS 101620Z 20008KT 12/02 A2976 RMK A01 T01190021  RH  052%=      5-min Rain = 0
KGHS 101625Z 19008KT 12/02 A2976 RMK A01 T01230021  RH  050%=      5-min Rain = 0
KGHS 101630Z 20008KT 12/02 A2976 RMK A01 T01240022  RH  050%=      5-min Rain = 0
KGHS 101635Z 19009KT 13/02 A2976 RMK A01 T01310022  RH  048%=      5-min Rain = 0
KGHS 101640Z 19010G15KT 14/02 A2976 RMK A01 T01360022  RH  047%=      5-min Rain = 0
KGHS 101645Z 19011KT 14/02 A2976 RMK A01 T01410023  RH  045%=      5-min Rain = 0
KGHS 101650Z 20012KT 15/02 A2976 RMK A01 T01450022  RH  044%=      5-min Rain = 0
KGHS 101655Z 21010G16KT 15/02 A2976 RMK A01 T01490023  RH  043%=      5-min Rain = 0
KGHS 101700Z 21011G16KT 15/02 A2976 RMK A01 T01510022  RH  042%=      5-min Rain = 0
KGHS 101705Z 22011G16KT 15/02 A2976 RMK A01 T01500022  RH  043%=      5-min Rain = 0
KGHS 101710Z 21008KT 15/02 A2976 RMK A01 T01490023  RH  043%=      5-min Rain = 0
KGHS 101715Z 20008G13KT 15/02 A2975 RMK A01 T01520023  RH  042%=      5-min Rain = 0
KGHS 101720Z 20010G15KT 15/02 A2975 RMK A01 T01540023  RH  042%=      5-min Rain = 0
KGHS 101725Z 20013G19KT 16/02 A2974 RMK A01 T01560021  RH  041%=      5-min Rain = 0
KGHS 101730Z 20011G16KT 16/02 A2974 RMK A01 T01590021  RH  040%=      5-min Rain = 0
KGHS 101735Z 19012KT 16/02 A2973 RMK A01 T01630021  RH  039%=      5-min Rain = 0
KGHS 101740Z 20012KT 17/02 A2973 RMK A01 T01670021  RH  038%=      5-min Rain = 0
KGHS 101745Z 19011G17KT 17/02 A2973 RMK A01 T01720021  RH  037%=      5-min Rain = 0
KGHS 101750Z 20012KT 17/02 A2972 RMK A01 T01730020  RH  036%=      5-min Rain = 0
KGHS 101755Z 18013G18KT 18/02 A2972 RMK A01 T01760020  RH  036%=      5-min Rain = 0
KGHS 101800Z 20013KT 18/02 A2971 RMK A01 T01780019  RH  035%=      5-min Rain = 0
KGHS 101805Z 20013KT 18/02 A2971 RMK A01 T01800018  RH  034%=      5-min Rain = 0
KGHS 101810Z 20014G20KT 18/02 A297 RMK A01 T01830018  RH  033%=      5-min Rain = 0
KGHS 101815Z 20014G21KT 19/02 A297 RMK A01 T01870018  RH  033%=      5-min Rain = 0
KGHS 101820Z 19015G20KT 19/02 A2969 RMK A01 T01860017  RH  033%=      5-min Rain = 0
KGHS 101825Z 18015KT 19/02 A2968 RMK A01 T01880017  RH  032%=      5-min Rain = 0
KGHS 101830Z 19013KT 19/02 A2968 RMK A01 T01900017  RH  032%=      5-min Rain = 0
KGHS 101835Z 20012G18KT 19/02 A2968 RMK A01 T01940017  RH  031%=      5-min Rain = 0
KGHS 101840Z 20014G20KT 20/02 A2968 RMK A01 T01960016  RH  030%=      5-min Rain = 0
KGHS 101845Z 19012G17KT 20/02 A2967 RMK A01 T02000018  RH  030%=      5-min Rain = 0
KGHS 101850Z 21012G17KT 20/02 A2967 RMK A01 T02040016  RH  029%=      5-min Rain = 0
KGHS 101855Z 20011KT 20/02 A2966 RMK A01 T02040017  RH  029%=      5-min Rain = 0
KGHS 101900Z 21012G19KT 21/02 A2965 RMK A01 T02080017  RH  028%=      5-min Rain = 0
KGHS 101905Z 21015G22KT 21/02 A2965 RMK A01 T02070015  RH  028%=      5-min Rain = 0
KGHS 101910Z 20012G17KT 21/02 A2964 RMK A01 T02080017  RH  028%=      5-min Rain = 0
KGHS 101915Z 19014G21KT 21/02 A2964 RMK A01 T02120016  RH  028%=      5-min Rain = 0
KGHS 101920Z 21012G17KT 21/02 A2963 RMK A01 T02120015  RH  027%=      5-min Rain = 0
KGHS 101925Z 21010G16KT 22/02 A2963 RMK A01 T02170016  RH  027%=      5-min Rain = 0
KGHS 101930Z 22012KT 22/02 A2962 RMK A01 T02190016  RH  026%=      5-min Rain = 0
KGHS 101935Z 20014G19KT 22/02 A2962 RMK A01 T02190015  RH  026%=      5-min Rain = 0
KGHS 101940Z 20012G18KT 22/02 A2962 RMK A01 T02190015  RH  026%=      5-min Rain = 0
KGHS 101945Z 22012G21KT 22/02 A2961 RMK A01 T02210015  RH  026%=      5-min Rain = 0
KGHS 101950Z 21013G19KT 22/01 A2961 RMK A01 T02220014  RH  026%=      5-min Rain = 0
KGHS 101955Z 21012G17KT 22/02 A296 RMK A01 T02240015  RH  026%=      5-min Rain = 0
KGHS 102000Z 21010G15KT 22/02 A296 RMK A01 T02240016  RH  026%=      5-min Rain = 0
KGHS 102005Z 20008KT 23/02 A296 RMK A01 T02250016  RH  026%=      5-min Rain = 0
KGHS 102010Z 19010G17KT 23/02 A2959 RMK A01 T02260015  RH  025%=      5-min Rain = 0
KGHS 102015Z 21012G18KT 23/01 A2959 RMK A01 T02270013  RH  025%=      5-min Rain = 0
KGHS 102020Z 21012KT 23/01 A2959 RMK A01 T02290013  RH  024%=      5-min Rain = 0
KGHS 102025Z 23011KT 23/01 A2959 RMK A01 T02290014  RH  024%=      5-min Rain = 0
KGHS 102030Z 21008G13KT 23/02 A2959 RMK A01 T02330015  RH  024%=      5-min Rain = 0
KGHS 102035Z 23009KT 24/01 A2959 RMK A01 T02370013  RH  023%=      5-min Rain = 0
KGHS 102040Z 21010KT 24/01 A2958 RMK A01 T02380010  RH  023%=      5-min Rain = 0
KGHS 102045Z 24014G20KT 24/00 A2957 RMK A01 T02400002  RH  021%=      5-min Rain = 0
KGHS 102050Z 23010G21KT 24/M00 A2957 RMK A01 T02421003  RH  020%=      5-min Rain = 0
KGHS 102055Z 22015G23KT 25/M01 A2956 RMK A01 T02451008  RH  019%=      5-min Rain = 0
KGHS 102100Z 22017G26KT 24/M01 A2956 RMK A01 T02431008  RH  019%=      5-min Rain = 0
KGHS 102105Z 22016G25KT 24/M01 A2956 RMK A01 T02421007  RH  019%=      5-min Rain = 0
KGHS 102110Z 21018G26KT 24/M01 A2956 RMK A01 T02411007  RH  020%=      5-min Rain = 0
KGHS 102115Z 22019G32KT 24/M01 A2956 RMK A01 T02431008  RH  019%=      5-min Rain = 0
KGHS 102120Z 23019G29KT 24/M01 A2956 RMK A01 T02401008  RH  019%=      5-min Rain = 0
KGHS 102125Z 23022G33KT 24/M02 A2956 RMK A01 T02361018  RH  019%=      5-min Rain = 0
KGHS 102130Z 24022G36KT 23/M04 A2956 RMK A01 T02321037  RH  017%=      5-min Rain = 0
KGHS 102135Z 24026G36KT 23/M04 A2956 RMK A01 T02291039  RH  017%=      5-min Rain = 0
KGHS 102140Z 24021G32KT 23/M04 A2956 RMK A01 T02281039  RH  017%=      5-min Rain = 0
KGHS 102145Z 24027G45KT 23/M04 A2955 RMK A01 T02311042  RH  016%=      5-min Rain = 0
KGHS 102150Z 24024G41KT 23/M04 A2956 RMK A01 T02341041  RH  016%=      5-min Rain = 0
KGHS 102155Z 25027G37KT 23/M04 A2956 RMK A01 T02301044  RH  016%=      5-min Rain = 0
KGHS 102200Z 24026G40KT 23/M04 A2956 RMK A01 T02251042  RH  017%=      5-min Rain = 0
KGHS 102205Z 23024G36KT 22/M04 A2956 RMK A01 T02231041  RH  017%=      5-min Rain = 0
KGHS 102210Z 23027G41KT 23/M04 A2955 RMK A01 T02251039  RH  017%=      5-min Rain = 0
KGHS 102215Z 24026G41KT 23/M04 A2955 RMK A01 T02271041  RH  017%=      5-min Rain = 0
KGHS 102220Z 24028G39KT 23/M04 A2955 RMK A01 T02251041  RH  017%=      5-min Rain = 0
KGHS 102225Z 24020G31KT 23/M04 A2955 RMK A01 T02251039  RH  017%=      5-min Rain = 0
KGHS 102230Z 23025G33KT 22/M04 A2954 RMK A01 T02241039  RH  017%=      5-min Rain = 0
KGHS 102235Z 24022G35KT 22/M04 A2955 RMK A01 T02231040  RH  017%=      5-min Rain = 0
KGHS 102240Z 24021G31KT 22/M04 A2955 RMK A01 T02221040  RH  017%=      5-min Rain = 0
KGHS 102245Z 24019G28KT 22/M04 A2955 RMK A01 T02201039  RH  018%=      5-min Rain = 0
KGHS 102250Z 25025G40KT 22/M03 A2955 RMK A01 T02171025  RH  020%=      5-min Rain = 0
KGHS 102255Z 26028G42KT 21/01 A2956 RMK A01 T02050009  RH  027%=      5-min Rain = 0
KGHS 102300Z 27028G38KT 20/01 A2956 RMK A01 T01970010  RH  029%=      5-min Rain = 0
KGHS 102305Z 27025G33KT 19/01 A2956 RMK A01 T01930011  RH  030%=      5-min Rain = 0
KGHS 102310Z 28026G36KT 19/01 A2957 RMK A01 T01890013  RH  031%=      5-min Rain = 0
KGHS 102315Z 28023G35KT 18/01 A2958 RMK A01 T01820014  RH  033%=      5-min Rain = 0
KGHS 102320Z 28027G35KT 18/01 A2957 RMK A01 T01770014  RH  034%=      5-min Rain = 0
KGHS 102325Z 27022G32KT 17/01 A2958 RMK A01 T01730014  RH  035%=      5-min Rain = 0
KGHS 102330Z 28023G31KT 17/02 A2958 RMK A01 T01690016  RH  036%=      5-min Rain = 0
KGHS 102335Z 28022G32KT 17/02 A296 RMK A01 T01650018  RH  037%=      5-min Rain = 0
KGHS 102340Z 27021G33KT 16/02 A296 RMK A01 T01620020  RH  039%=      5-min Rain = 0
KGHS 102345Z 27022G33KT 16/02 A296 RMK A01 T01600022  RH  040%=      5-min Rain = 0
KGHS 102350Z 27023G35KT 16/02 A296 RMK A01 T01570024  RH  041%=      5-min Rain = 0
KGHS 102355Z 26022G30KT 16/03 A2961 RMK A01 T01550025  RH  042%=      5-min Rain = 0
KGHS 110000Z 25022G34KT 15/02 A2964 RMK A01 T01540024  RH  042%=      5-min Rain = 0
KGHS 110005Z 25023G35KT 15/03 A2966 RMK A01 T01530025  RH  042%=      5-min Rain = 0
KGHS 110010Z 24028G42KT 15/02 A2966 RMK A01 T01510023  RH  042%=      5-min Rain = 0
KGHS 110015Z 24029G40KT 15/02 A2966 RMK A01 T01450022  RH  044%=      5-min Rain = 0
KGHS 110020Z 24021G36KT 13/04 A2968 RMK A01 T01330043  RH  055%=      5-min Rain = 0
KGHS 110025Z 23018G30KT 13/03 A2968 RMK A01 T01270034  RH  054%=      5-min Rain = 0
KGHS 110030Z 23018G29KT 13/03 A2968 RMK A01 T01290028  RH  051%=      5-min Rain = 0
KGHS 110035Z 21020G36KT 13/03 A2969 RMK A01 T01280034  RH  054%=      5-min Rain = 0
KGHS 110040Z 21025G44KT 13/03 A2966 RMK A01 T01280029  RH  051%=      5-min Rain = 0
KGHS 110045Z 21010G18KT 13/03 A296 RMK A01 T01300025  RH  049%=      5-min Rain = 0
KGHS 110050Z 21013G20KT 13/03 A296 RMK A01 T01300026  RH  050%=      5-min Rain = 0
KGHS 110055Z 22016G25KT 13/02 A296 RMK A01 T01300024  RH  049%=      5-min Rain = 0
KGHS 110100Z 22015G25KT 13/02 A2962 RMK A01 T01320021  RH  047%=      5-min Rain = 0
KGHS 110105Z 24012G21KT 13/02 A2962 RMK A01 T01310021  RH  048%=      5-min Rain = 0
KGHS 110110Z 24014G22KT 13/02 A2961 RMK A01 T01290021  RH  048%=      5-min Rain = 0
KGHS 110115Z 24015G24KT 13/02 A2962 RMK A01 T01260021  RH  049%=      5-min Rain = 0
KGHS 110120Z 24016G23KT 12/02 A2963 RMK A01 T01240019  RH  049%=      5-min Rain = 0
KGHS 110125Z 24015G25KT 12/02 A2963 RMK A01 T01230019  RH  050%=      5-min Rain = 0
KGHS 110130Z 24016G22KT 12/02 A2963 RMK A01 T01210019  RH  050%=      5-min Rain = 0
KGHS 110135Z 24017G27KT 12/02 A2963 RMK A01 T01190018  RH  050%=      5-min Rain = 0
KGHS 110140Z 24016G23KT 12/02 A2963 RMK A01 T01180017  RH  051%=      5-min Rain = 0
KGHS 110145Z 24016G25KT 12/02 A2962 RMK A01 T01170017  RH  051%=      5-min Rain = 0
KGHS 110150Z 24017G25KT 12/02 A2963 RMK A01 T01150017  RH  052%=      5-min Rain = 0
KGHS 110155Z 24017G25KT 12/02 A2963 RMK A01 T01150018  RH  052%=      5-min Rain = 0
KGHS 110200Z 24015G24KT 11/02 A2963 RMK A01 T01130018  RH  053%=      5-min Rain = 0
KGHS 110205Z 24016G23KT 11/02 A2963 RMK A01 T01120018  RH  053%=      5-min Rain = 0
KGHS 110210Z 24013G20KT 11/02 A2963 RMK A01 T01100018  RH  053%=      5-min Rain = 0
KGHS 110215Z 24013G19KT 11/02 A2963 RMK A01 T01080018  RH  054%=      5-min Rain = 0
KGHS 110220Z 24015G23KT 11/02 A2962 RMK A01 T01070018  RH  054%=      5-min Rain = 0
KGHS 110225Z 24018G25KT 11/02 A2962 RMK A01 T01080019  RH  055%=      5-min Rain = 0
KGHS 110230Z 24017G25KT 11/02 A2962 RMK A01 T01090019  RH  055%=      5-min Rain = 0
KGHS 110235Z 24018G26KT 11/02 A2962 RMK A01 T01090020  RH  055%=      5-min Rain = 0
KGHS 110240Z 23017G28KT 11/02 A2962 RMK A01 T01090020  RH  055%=      5-min Rain = 0
KGHS 110245Z 24017G26KT 11/02 A2962 RMK A01 T01080020  RH  055%=      5-min Rain = 0
KGHS 110250Z 23016G27KT 11/02 A2963 RMK A01 T01080020  RH  055%=      5-min Rain = 0
KGHS 110255Z 23015G28KT 11/02 A2963 RMK A01 T01070021  RH  056%=      5-min Rain = 0
KGHS 110300Z 23016G25KT 11/02 A2963 RMK A01 T01060021  RH  056%=      5-min Rain = 0
KGHS 110305Z 24017G28KT 11/02 A2962 RMK A01 T01060021  RH  056%=      5-min Rain = 0
KGHS 110310Z 23017G27KT 11/02 A2962 RMK A01 T01080022  RH  056%=      5-min Rain = 0
KGHS 110315Z 24016G22KT 11/02 A2963 RMK A01 T01080021  RH  056%=      5-min Rain = 0
KGHS 110320Z 23015G22KT 11/02 A2963 RMK A01 T01060021  RH  056%=      5-min Rain = 0
KGHS 110325Z 23016G21KT 11/02 A2963 RMK A01 T01060021  RH  056%=      5-min Rain = 0
KGHS 110330Z 23016G23KT 11/02 A2963 RMK A01 T01050022  RH  057%=      5-min Rain = 0
KGHS 110335Z 23012G21KT 10/02 A2963 RMK A01 T01040021  RH  057%=      5-min Rain = 0
KGHS 110340Z 23012G20KT 10/02 A2964 RMK A01 T01030021  RH  057%=      5-min Rain = 0
KGHS 110345Z 23014G21KT 10/02 A2964 RMK A01 T01030021  RH  058%=      5-min Rain = 0
KGHS 110350Z 24015G21KT 10/02 A2963 RMK A01 T01040022  RH  057%=      5-min Rain = 0
KGHS 110355Z 24013G21KT 10/02 A2963 RMK A01 T01040022  RH  057%=      5-min Rain = 0
KGHS 110400Z 24015G21KT 10/02 A2963 RMK A01 T01040022  RH  058%=      5-min Rain = 0
KGHS 110405Z 23014G19KT 10/02 A2963 RMK A01 T01040022  RH  057%=      5-min Rain = 0
KGHS 110410Z 23014G25KT 10/02 A2963 RMK A01 T01040022  RH  058%=      5-min Rain = 0
KGHS 110415Z 23013G18KT 10/02 A2963 RMK A01 T01040022  RH  058%=      5-min Rain = 0
KGHS 110420Z 23014G21KT 10/02 A2963 RMK A01 T01040022  RH  058%=      5-min Rain = 0
KGHS 110425Z 23014G22KT 11/02 A2963 RMK A01 T01050022  RH  057%=      5-min Rain = 0
KGHS 110430Z 23015G22KT 11/02 A2963 RMK A01 T01050022  RH  057%=      5-min Rain = 0
KGHS 110435Z 22014G21KT 11/02 A2963 RMK A01 T01050022  RH  057%=      5-min Rain = 0
KGHS 110440Z 22014G22KT 11/02 A2963 RMK A01 T01050021  RH  057%=      5-min Rain = 0
KGHS 110445Z 22014G20KT 11/02 A2964 RMK A01 T01050021  RH  057%=      5-min Rain = 0
KGHS 110450Z 21014G22KT 10/02 A2964 RMK A01 T01040021  RH  057%=      5-min Rain = 0
KGHS 110455Z 21014G20KT 10/02 A2964 RMK A01 T01040021  RH  057%=      5-min Rain = 0
KGHS 110500Z 21014G19KT 10/02 A2964 RMK A01 T01030021  RH  058%=      5-min Rain = 0
KGHS 110505Z 22014G21KT 10/02 A2964 RMK A01 T01030021  RH  057%=      5-min Rain = 0
KGHS 110510Z 22016G23KT 10/02 A2964 RMK A01 T01040019  RH  056%=      5-min Rain = 0
KGHS 110515Z 22015G25KT 10/02 A2964 RMK A01 T01040018  RH  056%=      5-min Rain = 0
KGHS 110520Z 22014G22KT 11/02 A2964 RMK A01 T01050017  RH  055%=      5-min Rain = 0
KGHS 110525Z 22015G21KT 10/02 A2964 RMK A01 T01040017  RH  055%=      5-min Rain = 0
KGHS 110530Z 22015G23KT 10/02 A2964 RMK A01 T01040016  RH  055%=      5-min Rain = 0
KGHS 110535Z 22015G22KT 10/02 A2964 RMK A01 T01030016  RH  055%=      5-min Rain = 0
KGHS 110540Z 22015KT 10/02 A2964 RMK A01 T01030015  RH  055%=      5-min Rain = 0
KGHS 110545Z 22014G23KT 10/02 A2964 RMK A01 T01020015  RH  056%=      5-min Rain = 0
KGHS 110550Z 22015G24KT 10/01 A2964 RMK A01 T01010014  RH  055%=      5-min Rain = 0
KGHS 110555Z 22015G24KT 10/01 A2964 RMK A01 T01010013  RH  055%=      5-min Rain = 0

Page generated in 0.0099 seconds.